Time,TemperatureF,DewpointF,PressureIn,WindDirection,WindDirectionDegrees,WindSpeedMPH,WindSpeedGustMPH,Humidity,HourlyPrecipIn,Conditions,Clouds,dailyrainin,SoftwareType,DateUTC
2013-03-20 00:09:00,63.8,63.0,29.91,ESE,120,0.0,-999.0,97,-99.99,,,0.00,weatherlink.com 1.10,2013-03-20 04:09:00,
2013-03-20 00:24:00,64.0,64.0,29.91,ESE,121,0.0,-999.0,98,-99.99,,,0.00,weatherlink.com 1.10,2013-03-20 04:24:00,
2013-03-20 00:39:00,64.7,64.0,29.92,ESE,120,0.0,-999.0,98,-99.99,,,0.00,weatherlink.com 1.10,2013-03-20 04:39:00,
2013-03-20 00:54:00,63.7,63.0,29.91,ESE,121,0.0,-999.0,98,-99.99,,,0.00,weatherlink.com 1.10,2013-03-20 04:54:00,
2013-03-20 01:09:00,63.8,63.0,29.91,ESE,121,0.0,-999.0,98,-99.99,,,0.00,weatherlink.com 1.10,2013-03-20 05:09:00,
2013-03-20 01:24:00,63.5,63.0,29.91,ESE,121,0.0,-999.0,98,-99.99,,,0.00,weatherlink.com 1.10,2013-03-20 05:24:00,
2013-03-20 01:39:00,63.4,63.0,29.91,ESE,121,0.0,-999.0,98,-99.99,,,0.00,weatherlink.com 1.10,2013-03-20 05:39:00,
2013-03-20 01:54:00,62.8,62.0,29.91,ESE,121,0.0,-999.0,98,-99.99,,,0.00,weatherlink.com 1.10,2013-03-20 05:54:00,
2013-03-20 02:09:00,62.6,62.0,29.91,ESE,121,0.0,-999.0,98,-99.99,,,0.00,weatherlink.com 1.10,2013-03-20 06:09:00,
2013-03-20 02:24:00,64.5,64.0,29.91,ESE,120,0.0,-999.0,99,-99.99,,,0.00,weatherlink.com 1.10,2013-03-20 06:24:00,
2013-03-20 02:39:00,65.9,66.0,29.90,ESE,120,0.0,-999.0,99,-99.99,,,0.00,weatherlink.com 1.10,2013-03-20 06:39:00,
2013-03-20 02:54:00,65.9,66.0,29.89,ESE,120,0.0,-999.0,99,-99.99,,,0.00,weatherlink.com 1.10,2013-03-20 06:54:00,
2013-03-20 03:09:00,66.2,66.0,29.88,ESE,120,0.0,-999.0,99,-99.99,,,0.00,weatherlink.com 1.10,2013-03-20 07:09:00,
2013-03-20 03:24:00,66.5,66.0,29.87,ESE,120,0.0,-999.0,99,-99.99,,,0.00,weatherlink.com 1.10,2013-03-20 07:24:00,
2013-03-20 03:39:00,65.1,65.0,29.86,ESE,120,0.0,-999.0,98,-99.99,,,0.00,weatherlink.com 1.10,2013-03-20 07:39:00,
2013-03-20 03:54:00,64.5,64.0,29.86,ESE,120,0.0,-999.0,99,-99.99,,,0.00,weatherlink.com 1.10,2013-03-20 07:54:00,
2013-03-20 04:09:00,63.9,64.0,29.86,ESE,120,0.0,-999.0,99,-99.99,,,0.00,weatherlink.com 1.10,2013-03-20 08:09:00,
2013-03-20 04:24:00,63.8,64.0,29.86,ESE,120,0.0,-999.0,99,-99.99,,,0.00,weatherlink.com 1.10,2013-03-20 08:24:00,
2013-03-20 04:39:00,63.7,64.0,29.86,ESE,120,0.0,-999.0,99,-99.99,,,0.00,weatherlink.com 1.10,2013-03-20 08:39:00,
2013-03-20 04:54:00,63.6,63.0,29.85,ESE,120,0.0,-999.0,99,-99.99,,,0.00,weatherlink.com 1.10,2013-03-20 08:54:00,
2013-03-20 05:09:00,64.2,64.0,29.86,ESE,120,0.0,-999.0,99,-99.99,,,0.00,weatherlink.com 1.10,2013-03-20 09:09:00,
2013-03-20 05:24:00,64.0,64.0,29.86,ESE,120,0.0,-999.0,99,-99.99,,,0.00,weatherlink.com 1.10,2013-03-20 09:24:00,
2013-03-20 05:39:00,63.9,64.0,29.86,ESE,120,0.0,-999.0,99,-99.99,,,0.00,weatherlink.com 1.10,2013-03-20 09:39:00,
2013-03-20 05:54:00,64.0,64.0,29.86,ESE,120,0.0,-999.0,99,-99.99,,,0.00,weatherlink.com 1.10,2013-03-20 09:54:00,
2013-03-20 06:09:00,64.4,64.0,29.87,ESE,120,0.0,-999.0,99,-99.99,,,0.00,weatherlink.com 1.10,2013-03-20 10:09:00,
2013-03-20 06:24:00,65.1,65.0,29.87,ESE,120,0.0,-999.0,99,-99.99,,,0.00,weatherlink.com 1.10,2013-03-20 10:24:00,
2013-03-20 06:39:00,65.3,65.0,29.88,ESE,120,0.0,-999.0,99,-99.99,,,0.00,weatherlink.com 1.10,2013-03-20 10:39:00,
2013-03-20 06:54:00,65.6,65.0,29.88,ESE,120,0.0,-999.0,99,-99.99,,,0.00,weatherlink.com 1.10,2013-03-20 10:54:00,
2013-03-20 07:09:00,66.2,66.0,29.88,ESE,120,0.0,-999.0,99,-99.99,,,0.00,weatherlink.com 1.10,2013-03-20 11:09:00,
2013-03-20 07:24:00,66.1,66.0,29.89,ESE,120,0.0,-999.0,99,-99.99,,,0.00,weatherlink.com 1.10,2013-03-20 11:24:00,
2013-03-20 07:39:00,66.2,66.0,29.89,ESE,120,0.0,-999.0,99,-99.99,,,0.00,weatherlink.com 1.10,2013-03-20 11:39:00,
2013-03-20 07:54:00,66.3,66.0,29.89,ESE,120,0.0,-999.0,99,-99.99,,,0.00,weatherlink.com 1.10,2013-03-20 11:54:00,
2013-03-20 08:09:00,66.2,66.0,29.89,ESE,120,0.0,-999.0,99,-99.99,,,0.00,weatherlink.com 1.10,2013-03-20 12:09:00,
2013-03-20 08:24:00,66.9,67.0,29.89,ESE,120,0.0,-999.0,99,-99.99,,,0.00,weatherlink.com 1.10,2013-03-20 12:24:00,
2013-03-20 08:39:00,67.2,67.0,29.89,ESE,120,0.0,-999.0,99,-99.99,,,0.00,weatherlink.com 1.10,2013-03-20 12:39:00,
2013-03-20 08:54:00,68.2,68.0,29.89,ESE,120,0.0,-999.0,100,-99.99,,,0.00,weatherlink.com 1.10,2013-03-20 12:54:00,
2013-03-20 09:09:00,69.7,70.0,29.88,ESE,120,0.0,-999.0,100,-99.99,,,0.00,weatherlink.com 1.10,2013-03-20 13:09:00,
2013-03-20 09:24:00,70.2,70.0,29.90,NNE,19,0.0,-999.0,100,-99.99,,,0.00,weatherlink.com 1.10,2013-03-20 13:24:00,
2013-03-20 09:39:00,70.5,70.0,29.91,NNE,19,0.0,-999.0,99,-99.99,,,0.00,weatherlink.com 1.10,2013-03-20 13:39:00,
2013-03-20 09:54:00,71.0,71.0,29.91,NNE,19,0.0,-999.0,99,-99.99,,,0.00,weatherlink.com 1.10,2013-03-20 13:54:00,
2013-03-20 10:09:00,70.7,70.0,29.90,ESE,117,0.0,-999.0,99,-99.99,,,0.00,weatherlink.com 1.10,2013-03-20 14:09:00,
2013-03-20 10:24:00,71.4,71.0,29.87,SSE,154,0.0,-999.0,97,-99.99,,,0.00,weatherlink.com 1.10,2013-03-20 14:24:00,
2013-03-20 10:39:00,72.2,70.0,29.89,SW,236,4.0,-999.0,93,-99.99,,,0.00,weatherlink.com 1.10,2013-03-20 14:39:00,
2013-03-20 10:55:00,73.1,70.0,29.90,SSW,197,2.0,-999.0,90,-99.99,,,0.00,weatherlink.com 1.10,2013-03-20 14:55:00,
2013-03-20 11:10:00,73.7,70.0,29.90,SSW,196,0.0,-999.0,87,-99.99,,,0.00,weatherlink.com 1.10,2013-03-20 15:10:00,
2013-03-20 11:25:00,74.0,70.0,29.91,SSW,201,0.0,-999.0,87,-99.99,,,0.00,weatherlink.com 1.10,2013-03-20 15:25:00,
2013-03-20 11:40:00,74.2,70.0,29.90,SW,234,0.0,-999.0,86,-99.99,,,0.00,weatherlink.com 1.10,2013-03-20 15:40:00,
2013-03-20 11:55:00,74.4,69.0,29.90,SSW,213,1.0,-999.0,82,-99.99,,,0.00,weatherlink.com 1.10,2013-03-20 15:55:00,
2013-03-20 12:10:00,75.3,68.0,29.90,SW,214,7.0,-999.0,79,-99.99,,,0.00,weatherlink.com 1.10,2013-03-20 16:10:00,
2013-03-20 12:25:00,76.7,69.0,29.89,SSW,193,1.0,-999.0,76,-99.99,,,0.00,weatherlink.com 1.10,2013-03-20 16:25:00,
2013-03-20 12:40:00,77.1,69.0,29.88,SSW,205,7.0,-999.0,75,-99.99,,,0.00,weatherlink.com 1.10,2013-03-20 16:40:00,
2013-03-20 12:55:00,76.8,69.0,29.87,SSE,158,0.0,-999.0,78,-99.99,,,0.00,weatherlink.com 1.10,2013-03-20 16:55:00,
2013-03-20 13:10:00,77.4,69.0,29.86,SW,225,5.0,-999.0,76,-99.99,,,0.00,weatherlink.com 1.10,2013-03-20 17:10:00,
2013-03-20 13:25:00,78.1,68.0,29.85,WSW,248,0.0,-999.0,72,-99.99,,,0.00,weatherlink.com 1.10,2013-03-20 17:25:00,
2013-03-20 13:40:00,79.5,70.0,29.84,West,277,9.0,-999.0,72,-99.99,,,0.00,weatherlink.com 1.10,2013-03-20 17:40:00,
2013-03-20 13:55:00,80.8,69.0,29.82,WSW,251,0.0,-999.0,68,-99.99,,,0.00,weatherlink.com 1.10,2013-03-20 17:55:00,
2013-03-20 14:10:00,80.7,68.0,29.81,SW,221,0.0,-999.0,66,-99.99,,,0.00,weatherlink.com 1.10,2013-03-20 18:10:00,
2013-03-20 14:25:00,79.2,68.0,29.80,SW,222,0.0,-999.0,69,-99.99,,,0.00,weatherlink.com 1.10,2013-03-20 18:25:00,
2013-03-20 14:40:00,76.4,70.0,29.80,ESE,112,5.0,-999.0,81,-99.99,,,0.00,weatherlink.com 1.10,2013-03-20 18:40:00,
2013-03-20 14:55:00,76.0,70.0,29.79,ESE,120,0.0,-999.0,82,-99.99,,,0.00,weatherlink.com 1.10,2013-03-20 18:55:00,
2013-03-20 15:10:00,77.8,69.0,29.79,NNW,331,0.0,-999.0,75,-99.99,,,0.00,weatherlink.com 1.10,2013-03-20 19:10:00,
2013-03-20 15:25:00,78.3,67.0,29.79,West,262,5.0,-999.0,69,-99.99,,,0.00,weatherlink.com 1.10,2013-03-20 19:25:00,
2013-03-20 15:40:00,78.4,63.0,29.77,West,273,14.0,-999.0,59,-99.99,,,0.00,weatherlink.com 1.10,2013-03-20 19:40:00,
2013-03-20 15:55:00,79.3,61.0,29.77,West,277,6.0,-999.0,54,-99.99,,,0.00,weatherlink.com 1.10,2013-03-20 19:55:00,
2013-03-20 16:10:00,79.2,61.0,29.76,WNW,292,10.0,-999.0,53,-99.99,,,0.00,weatherlink.com 1.10,2013-03-20 20:10:00,
2013-03-20 16:25:00,78.6,62.0,29.76,WNW,285,8.0,-999.0,56,-99.99,,,0.00,weatherlink.com 1.10,2013-03-20 20:25:00,
2013-03-20 16:40:00,77.9,61.0,29.75,West,281,5.0,-999.0,57,-99.99,,,0.00,weatherlink.com 1.10,2013-03-20 20:40:00,
2013-03-20 16:55:00,77.3,61.0,29.75,West,263,11.0,-999.0,58,-99.99,,,0.00,weatherlink.com 1.10,2013-03-20 20:55:00,
2013-03-20 17:10:00,76.9,61.0,29.75,West,279,10.0,-999.0,59,-99.99,,,0.00,weatherlink.com 1.10,2013-03-20 21:10:00,
2013-03-20 17:25:00,77.1,62.0,29.75,West,278,0.0,-999.0,59,-99.99,,,0.00,weatherlink.com 1.10,2013-03-20 21:25:00,
2013-03-20 17:55:00,76.1,63.0,29.74,West,278,3.0,-999.0,63,-99.99,,,0.00,weatherlink.com 1.10,2013-03-20 21:55:00,
2013-03-20 18:10:00,75.1,62.0,29.74,West,263,4.0,-999.0,63,-99.99,,,0.00,weatherlink.com 1.10,2013-03-20 22:10:00,
2013-03-20 18:25:00,74.6,62.0,29.74,West,278,0.0,-999.0,65,-99.99,,,0.00,weatherlink.com 1.10,2013-03-20 22:25:00,
2013-03-20 18:40:00,74.1,62.0,29.75,West,260,0.0,-999.0,67,-99.99,,,0.00,weatherlink.com 1.10,2013-03-20 22:40:00,
2013-03-20 18:55:00,73.5,62.0,29.75,West,270,0.0,-999.0,68,-99.99,,,0.00,weatherlink.com 1.10,2013-03-20 22:55:00,
2013-03-20 19:10:00,72.8,62.0,29.75,West,271,0.0,-999.0,70,-99.99,,,0.00,weatherlink.com 1.10,2013-03-20 23:10:00,
2013-03-20 19:25:00,72.3,62.0,29.77,West,269,0.0,-999.0,71,-99.99,,,0.00,weatherlink.com 1.10,2013-03-20 23:25:00,
2013-03-20 19:40:00,72.0,62.0,29.77,West,268,5.0,-999.0,70,-99.99,,,0.00,weatherlink.com 1.10,2013-03-20 23:40:00,
2013-03-20 19:55:00,71.7,61.0,29.78,WSW,253,0.0,-999.0,70,-99.99,,,0.00,weatherlink.com 1.10,2013-03-20 23:55:00,
2013-03-20 20:10:00,71.3,61.0,29.79,WSW,254,1.0,-999.0,71,-99.99,,,0.00,weatherlink.com 1.10,2013-03-21 00:10:00,
2013-03-20 20:25:00,71.1,61.0,29.79,West,275,7.0,-999.0,71,-99.99,,,0.00,weatherlink.com 1.10,2013-03-21 00:25:00,
2013-03-20 20:40:00,71.1,61.0,29.79,West,261,6.0,-999.0,70,-99.99,,,0.00,weatherlink.com 1.10,2013-03-21 00:40:00,
2013-03-20 20:55:00,71.2,61.0,29.79,West,263,9.0,-999.0,70,-99.99,,,0.00,weatherlink.com 1.10,2013-03-21 00:55:00,
2013-03-20 21:10:00,70.8,61.0,29.80,West,274,10.0,-999.0,70,-99.99,,,0.00,weatherlink.com 1.10,2013-03-21 01:10:00,
2013-03-20 21:25:00,70.1,60.0,29.80,WNW,287,9.0,-999.0,71,-99.99,,,0.00,weatherlink.com 1.10,2013-03-21 01:25:00,
2013-03-20 21:40:00,69.4,61.0,29.81,West,263,13.0,-999.0,74,-99.99,,,0.00,weatherlink.com 1.10,2013-03-21 01:40:00,
2013-03-20 21:55:00,68.9,61.0,29.82,WSW,252,11.0,-999.0,76,-99.99,,,0.00,weatherlink.com 1.10,2013-03-21 01:55:00,
2013-03-20 22:10:00,68.5,61.0,29.82,West,274,0.0,-999.0,77,-99.99,,,0.00,weatherlink.com 1.10,2013-03-21 02:10:00,
2013-03-20 22:25:00,67.8,61.0,29.81,WSW,256,7.0,-999.0,79,-99.99,,,0.00,weatherlink.com 1.10,2013-03-21 02:25:00,
2013-03-20 22:40:00,67.3,61.0,29.80,West,270,0.0,-999.0,81,-99.99,,,0.00,weatherlink.com 1.10,2013-03-21 02:40:00,
2013-03-20 22:55:00,67.0,61.0,29.80,West,271,0.0,-999.0,82,-99.99,,,0.00,weatherlink.com 1.10,2013-03-21 02:55:00,
2013-03-20 23:10:00,66.4,62.0,29.81,West,263,5.0,-999.0,84,-99.99,,,0.00,weatherlink.com 1.10,2013-03-21 03:10:00,
2013-03-20 23:25:00,65.8,61.0,29.80,West,271,0.0,-999.0,85,-99.99,,,0.00,weatherlink.com 1.10,2013-03-21 03:25:00,
2013-03-20 23:40:00,65.3,61.0,29.80,WNW,294,0.0,-999.0,87,-99.99,,,0.00,weatherlink.com 1.10,2013-03-21 03:40:00,
2013-03-20 23:55:00,64.9,61.0,29.79,West,280,0.0,-999.0,87,-99.99,,,0.00,weatherlink.com 1.10,2013-03-21 03:55:00,